sensor_id;sensor_type;location;lat;lon;timestamp;temperature;humidity
25092;DHT22;13082;52.374;4.946;2022-11-18T00:01:30;9.50;99.90
25092;DHT22;13082;52.374;4.946;2022-11-18T00:03:55;9.50;99.90
25092;DHT22;13082;52.374;4.946;2022-11-18T00:06:23;9.50;99.90
25092;DHT22;13082;52.374;4.946;2022-11-18T00:08:50;9.50;99.90
25092;DHT22;13082;52.374;4.946;2022-11-18T00:11:22;9.50;99.90
25092;DHT22;13082;52.374;4.946;2022-11-18T00:14:12;9.50;99.90
25092;DHT22;13082;52.374;4.946;2022-11-18T00:16:55;9.40;99.90
25092;DHT22;13082;52.374;4.946;2022-11-18T00:19:25;9.40;99.90
25092;DHT22;13082;52.374;4.946;2022-11-18T00:21:51;9.30;99.90
25092;DHT22;13082;52.374;4.946;2022-11-18T00:24:17;9.40;99.90
25092;DHT22;13082;52.374;4.946;2022-11-18T00:26:43;9.30;99.90
25092;DHT22;13082;52.374;4.946;2022-11-18T00:29:09;9.30;99.90
25092;DHT22;13082;52.374;4.946;2022-11-18T00:31:35;9.40;99.90
25092;DHT22;13082;52.374;4.946;2022-11-18T00:34:01;9.40;99.90
25092;DHT22;13082;52.374;4.946;2022-11-18T00:36:27;9.40;99.90
25092;DHT22;13082;52.374;4.946;2022-11-18T00:38:53;9.40;99.90
25092;DHT22;13082;52.374;4.946;2022-11-18T00:41:18;9.40;99.90
25092;DHT22;13082;52.374;4.946;2022-11-18T00:43:44;9.30;99.90
25092;DHT22;13082;52.374;4.946;2022-11-18T00:46:11;9.40;99.90
25092;DHT22;13082;52.374;4.946;2022-11-18T00:48:37;9.30;99.90
25092;DHT22;13082;52.374;4.946;2022-11-18T00:51:17;9.30;99.90
25092;DHT22;13082;52.374;4.946;2022-11-18T00:53:43;9.30;99.90
25092;DHT22;13082;52.374;4.946;2022-11-18T00:56:10;9.30;99.90
25092;DHT22;13082;52.374;4.946;2022-11-18T00:58:36;9.30;99.90
25092;DHT22;13082;52.374;4.946;2022-11-18T01:01:02;9.30;99.90
25092;DHT22;13082;52.374;4.946;2022-11-18T01:03:28;9.30;99.90
25092;DHT22;13082;52.374;4.946;2022-11-18T01:05:54;9.30;99.90
25092;DHT22;13082;52.374;4.946;2022-11-18T01:08:21;9.30;99.90
25092;DHT22;13082;52.374;4.946;2022-11-18T01:10:48;9.30;99.90
25092;DHT22;13082;52.374;4.946;2022-11-18T01:13:16;9.20;99.90
25092;DHT22;13082;52.374;4.946;2022-11-18T01:15:53;9.20;99.90
25092;DHT22;13082;52.374;4.946;2022-11-18T01:18:21;9.30;99.90
25092;DHT22;13082;52.374;4.946;2022-11-18T01:20:47;9.20;99.90
25092;DHT22;13082;52.374;4.946;2022-11-18T01:23:14;9.20;99.90
25092;DHT22;13082;52.374;4.946;2022-11-18T01:25:41;9.20;99.90
25092;DHT22;13082;52.374;4.946;2022-11-18T01:28:07;9.20;99.90
25092;DHT22;13082;52.374;4.946;2022-11-18T01:30:34;9.20;99.90
25092;DHT22;13082;52.374;4.946;2022-11-18T01:33:01;9.10;99.90
25092;DHT22;13082;52.374;4.946;2022-11-18T01:35:28;9.10;99.90
25092;DHT22;13082;52.374;4.946;2022-11-18T01:37:53;9.20;99.90
25092;DHT22;13082;52.374;4.946;2022-11-18T01:40:19;9.20;99.90
25092;DHT22;13082;52.374;4.946;2022-11-18T01:42:45;9.10;99.90
25092;DHT22;13082;52.374;4.946;2022-11-18T01:45:32;9.10;99.90
25092;DHT22;13082;52.374;4.946;2022-11-18T01:51:15;9.10;99.90
25092;DHT22;13082;52.374;4.946;2022-11-18T01:53:47;9.10;99.90
25092;DHT22;13082;52.374;4.946;2022-11-18T01:56:16;9.10;99.90
25092;DHT22;13082;52.374;4.946;2022-11-18T01:58:51;9.10;99.90
25092;DHT22;13082;52.374;4.946;2022-11-18T02:01:18;9.10;99.90
25092;DHT22;13082;52.374;4.946;2022-11-18T02:03:45;9.10;99.90
25092;DHT22;13082;52.374;4.946;2022-11-18T02:06:12;9.10;99.90
25092;DHT22;13082;52.374;4.946;2022-11-18T02:08:38;9.10;99.90
25092;DHT22;13082;52.374;4.946;2022-11-18T02:11:09;9.20;99.90
25092;DHT22;13082;52.374;4.946;2022-11-18T02:13:55;9.20;99.90
25092;DHT22;13082;52.374;4.946;2022-11-18T02:16:30;9.20;99.90
25092;DHT22;13082;52.374;4.946;2022-11-18T02:19:20;9.10;99.90
25092;DHT22;13082;52.374;4.946;2022-11-18T02:31:07;9.10;99.90
25092;DHT22;13082;52.374;4.946;2022-11-18T02:33:42;9.10;99.90
25092;DHT22;13082;52.374;4.946;2022-11-18T02:36:21;9.20;99.90
25092;DHT22;13082;52.374;4.946;2022-11-18T02:38:58;9.20;99.90
25092;DHT22;13082;52.374;4.946;2022-11-18T02:41:29;9.10;99.90
25092;DHT22;13082;52.374;4.946;2022-11-18T02:44:06;9.20;99.90
25092;DHT22;13082;52.374;4.946;2022-11-18T02:46:36;9.20;99.90
25092;DHT22;13082;52.374;4.946;2022-11-18T02:49:09;9.20;99.90
25092;DHT22;13082;52.374;4.946;2022-11-18T02:51:35;9.20;99.90
25092;DHT22;13082;52.374;4.946;2022-11-18T02:54:05;9.20;99.90
25092;DHT22;13082;52.374;4.946;2022-11-18T02:56:33;9.20;99.90
25092;DHT22;13082;52.374;4.946;2022-11-18T02:59:00;9.10;99.90
25092;DHT22;13082;52.374;4.946;2022-11-18T03:01:28;9.10;99.90
25092;DHT22;13082;52.374;4.946;2022-11-18T03:03:54;9.10;99.90
25092;DHT22;13082;52.374;4.946;2022-11-18T03:06:34;9.10;99.90
25092;DHT22;13082;52.374;4.946;2022-11-18T03:09:31;9.10;99.90
25092;DHT22;13082;52.374;4.946;2022-11-18T03:13:40;9.10;99.90
25092;DHT22;13082;52.374;4.946;2022-11-18T03:15:43;9.10;99.90
25092;DHT22;13082;52.374;4.946;2022-11-18T03:18:24;9.10;99.90
25092;DHT22;13082;52.374;4.946;2022-11-18T03:20:58;9.00;99.90
25092;DHT22;13082;52.374;4.946;2022-11-18T03:23:27;9.00;99.90
25092;DHT22;13082;52.374;4.946;2022-11-18T03:28:31;8.90;99.90
25092;DHT22;13082;52.374;4.946;2022-11-18T03:31:17;8.90;99.90
25092;DHT22;13082;52.374;4.946;2022-11-18T03:33:51;8.90;99.90
25092;DHT22;13082;52.374;4.946;2022-11-18T03:36:20;8.90;99.90
25092;DHT22;13082;52.374;4.946;2022-11-18T03:38:50;8.90;99.90
25092;DHT22;13082;52.374;4.946;2022-11-18T03:41:20;8.90;99.90
25092;DHT22;13082;52.374;4.946;2022-11-18T03:43:57;8.90;99.90
25092;DHT22;13082;52.374;4.946;2022-11-18T03:46:45;8.90;99.90
25092;DHT22;13082;52.374;4.946;2022-11-18T03:49:26;8.90;99.90
25092;DHT22;13082;52.374;4.946;2022-11-18T03:51:57;8.90;99.90
25092;DHT22;13082;52.374;4.946;2022-11-18T03:54:29;8.90;99.90
25092;DHT22;13082;52.374;4.946;2022-11-18T03:57:19;8.90;99.90
25092;DHT22;13082;52.374;4.946;2022-11-18T04:00:10;8.90;99.90
25092;DHT22;13082;52.374;4.946;2022-11-18T04:02:36;8.90;99.90
25092;DHT22;13082;52.374;4.946;2022-11-18T04:05:05;8.90;99.90
25092;DHT22;13082;52.374;4.946;2022-11-18T04:07:55;8.90;99.90
25092;DHT22;13082;52.374;4.946;2022-11-18T04:10:37;8.90;99.90
25092;DHT22;13082;52.374;4.946;2022-11-18T04:13:14;8.90;99.90
25092;DHT22;13082;52.374;4.946;2022-11-18T04:15:41;8.90;99.90
25092;DHT22;13082;52.374;4.946;2022-11-18T04:18:08;8.90;99.90
25092;DHT22;13082;52.374;4.946;2022-11-18T04:20:34;8.90;99.90
25092;DHT22;13082;52.374;4.946;2022-11-18T04:23:02;8.90;99.90
25092;DHT22;13082;52.374;4.946;2022-11-18T04:25:28;8.90;99.90
25092;DHT22;13082;52.374;4.946;2022-11-18T04:27:54;8.90;99.90
25092;DHT22;13082;52.374;4.946;2022-11-18T04:30:20;8.80;99.90
25092;DHT22;13082;52.374;4.946;2022-11-18T04:32:45;8.80;99.90
25092;DHT22;13082;52.374;4.946;2022-11-18T04:35:11;8.80;99.90
25092;DHT22;13082;52.374;4.946;2022-11-18T04:37:37;8.80;99.90
25092;DHT22;13082;52.374;4.946;2022-11-18T04:40:03;8.80;99.90
25092;DHT22;13082;52.374;4.946;2022-11-18T04:42:29;8.80;99.90
25092;DHT22;13082;52.374;4.946;2022-11-18T04:44:54;8.80;99.90
25092;DHT22;13082;52.374;4.946;2022-11-18T04:47:20;8.80;99.90
25092;DHT22;13082;52.374;4.946;2022-11-18T04:49:46;8.80;99.90
25092;DHT22;13082;52.374;4.946;2022-11-18T04:52:12;8.80;99.90
25092;DHT22;13082;52.374;4.946;2022-11-18T04:54:38;8.80;99.90
25092;DHT22;13082;52.374;4.946;2022-11-18T04:57:03;8.90;99.90
25092;DHT22;13082;52.374;4.946;2022-11-18T04:59:29;8.80;99.90
25092;DHT22;13082;52.374;4.946;2022-11-18T05:01:55;8.80;99.90
25092;DHT22;13082;52.374;4.946;2022-11-18T05:04:23;8.80;99.90
25092;DHT22;13082;52.374;4.946;2022-11-18T05:06:49;8.80;99.90
25092;DHT22;13082;52.374;4.946;2022-11-18T05:09:16;8.90;99.90
25092;DHT22;13082;52.374;4.946;2022-11-18T05:11:41;8.80;99.90
25092;DHT22;13082;52.374;4.946;2022-11-18T05:14:26;8.80;99.90
25092;DHT22;13082;52.374;4.946;2022-11-18T05:16:53;8.80;99.90
25092;DHT22;13082;52.374;4.946;2022-11-18T05:19:19;8.80;99.90
25092;DHT22;13082;52.374;4.946;2022-11-18T05:21:45;8.80;99.90
25092;DHT22;13082;52.374;4.946;2022-11-18T05:24:10;8.80;99.90
25092;DHT22;13082;52.374;4.946;2022-11-18T05:26:36;8.80;99.90
25092;DHT22;13082;52.374;4.946;2022-11-18T05:29:02;8.80;99.90
25092;DHT22;13082;52.374;4.946;2022-11-18T05:31:27;8.90;99.90
25092;DHT22;13082;52.374;4.946;2022-11-18T05:33:53;8.90;99.90
25092;DHT22;13082;52.374;4.946;2022-11-18T05:36:20;8.90;99.90
25092;DHT22;13082;52.374;4.946;2022-11-18T05:38:46;8.90;99.90
25092;DHT22;13082;52.374;4.946;2022-11-18T05:41:12;8.90;99.90
25092;DHT22;13082;52.374;4.946;2022-11-18T05:44:00;9.00;99.90
25092;DHT22;13082;52.374;4.946;2022-11-18T05:46:27;9.00;99.90
25092;DHT22;13082;52.374;4.946;2022-11-18T05:48:52;9.00;99.90
25092;DHT22;13082;52.374;4.946;2022-11-18T05:51:18;8.90;99.90
25092;DHT22;13082;52.374;4.946;2022-11-18T05:53:45;8.90;99.90
25092;DHT22;13082;52.374;4.946;2022-11-18T05:59:18;8.90;99.90
25092;DHT22;13082;52.374;4.946;2022-11-18T06:04:14;8.90;99.90
25092;DHT22;13082;52.374;4.946;2022-11-18T06:06:42;8.90;99.90
25092;DHT22;13082;52.374;4.946;2022-11-18T06:09:10;9.00;99.90
25092;DHT22;13082;52.374;4.946;2022-11-18T06:11:42;9.00;99.90
25092;DHT22;13082;52.374;4.946;2022-11-18T06:14:14;9.00;99.90
25092;DHT22;13082;52.374;4.946;2022-11-18T06:16:46;9.00;99.90
25092;DHT22;13082;52.374;4.946;2022-11-18T06:19:14;9.00;99.90
25092;DHT22;13082;52.374;4.946;2022-11-18T06:21:40;9.00;99.90
25092;DHT22;13082;52.374;4.946;2022-11-18T06:24:06;9.00;99.90
25092;DHT22;13082;52.374;4.946;2022-11-18T06:26:35;9.00;99.90
25092;DHT22;13082;52.374;4.946;2022-11-18T06:29:00;9.10;99.90
25092;DHT22;13082;52.374;4.946;2022-11-18T06:31:26;9.10;99.90
25092;DHT22;13082;52.374;4.946;2022-11-18T06:33:52;9.10;99.90
25092;DHT22;13082;52.374;4.946;2022-11-18T06:36:17;9.10;99.90
25092;DHT22;13082;52.374;4.946;2022-11-18T06:38:43;9.10;99.90
25092;DHT22;13082;52.374;4.946;2022-11-18T06:41:09;9.10;99.90
25092;DHT22;13082;52.374;4.946;2022-11-18T06:43:34;9.10;99.90
25092;DHT22;13082;52.374;4.946;2022-11-18T06:46:05;9.10;99.90
25092;DHT22;13082;52.374;4.946;2022-11-18T06:48:50;9.10;99.90
25092;DHT22;13082;52.374;4.946;2022-11-18T06:51:16;9.20;99.90
25092;DHT22;13082;52.374;4.946;2022-11-18T06:53:41;9.10;99.90
25092;DHT22;13082;52.374;4.946;2022-11-18T06:56:10;9.10;99.90
25092;DHT22;13082;52.374;4.946;2022-11-18T06:58:36;9.10;99.90
25092;DHT22;13082;52.374;4.946;2022-11-18T07:01:13;9.10;99.90
25092;DHT22;13082;52.374;4.946;2022-11-18T07:03:40;9.10;99.90
25092;DHT22;13082;52.374;4.946;2022-11-18T07:06:07;9.10;99.90
25092;DHT22;13082;52.374;4.946;2022-11-18T07:08:36;9.10;99.90
25092;DHT22;13082;52.374;4.946;2022-11-18T07:11:05;9.20;99.90
25092;DHT22;13082;52.374;4.946;2022-11-18T07:13:31;9.10;99.90
25092;DHT22;13082;52.374;4.946;2022-11-18T07:18:34;9.10;99.90
25092;DHT22;13082;52.374;4.946;2022-11-18T07:21:04;9.10;99.90
25092;DHT22;13082;52.374;4.946;2022-11-18T07:23:31;9.10;99.90
25092;DHT22;13082;52.374;4.946;2022-11-18T07:25:57;9.10;99.90
25092;DHT22;13082;52.374;4.946;2022-11-18T07:28:23;9.10;99.90
25092;DHT22;13082;52.374;4.946;2022-11-18T07:30:49;9.10;99.90
25092;DHT22;13082;52.374;4.946;2022-11-18T07:33:15;9.10;99.90
25092;DHT22;13082;52.374;4.946;2022-11-18T07:35:41;9.00;99.90
25092;DHT22;13082;52.374;4.946;2022-11-18T07:38:07;9.10;99.90
25092;DHT22;13082;52.374;4.946;2022-11-18T07:40:33;9.10;99.90
25092;DHT22;13082;52.374;4.946;2022-11-18T07:42:59;9.00;99.90
25092;DHT22;13082;52.374;4.946;2022-11-18T07:45:24;9.10;99.90
25092;DHT22;13082;52.374;4.946;2022-11-18T07:47:50;9.10;99.90
25092;DHT22;13082;52.374;4.946;2022-11-18T07:50:16;9.10;99.90
25092;DHT22;13082;52.374;4.946;2022-11-18T07:52:42;9.10;99.90
25092;DHT22;13082;52.374;4.946;2022-11-18T07:55:08;9.10;99.90
25092;DHT22;13082;52.374;4.946;2022-11-18T07:57:34;9.10;99.90
25092;DHT22;13082;52.374;4.946;2022-11-18T08:00:00;9.10;99.90
25092;DHT22;13082;52.374;4.946;2022-11-18T08:02:25;9.10;99.90
25092;DHT22;13082;52.374;4.946;2022-11-18T08:04:51;9.10;99.90
25092;DHT22;13082;52.374;4.946;2022-11-18T08:07:16;9.10;99.90
25092;DHT22;13082;52.374;4.946;2022-11-18T08:09:42;9.10;99.90
25092;DHT22;13082;52.374;4.946;2022-11-18T08:12:07;9.10;99.90
25092;DHT22;13082;52.374;4.946;2022-11-18T08:14:33;9.10;99.90
25092;DHT22;13082;52.374;4.946;2022-11-18T08:16:59;9.10;99.90
25092;DHT22;13082;52.374;4.946;2022-11-18T08:19:24;9.10;99.90
25092;DHT22;13082;52.374;4.946;2022-11-18T08:21:50;9.10;99.90
25092;DHT22;13082;52.374;4.946;2022-11-18T08:24:15;9.10;99.90
25092;DHT22;13082;52.374;4.946;2022-11-18T08:26:41;9.10;99.90
25092;DHT22;13082;52.374;4.946;2022-11-18T08:29:07;9.10;99.90
25092;DHT22;13082;52.374;4.946;2022-11-18T08:31:33;9.10;99.90
25092;DHT22;13082;52.374;4.946;2022-11-18T08:34:03;9.10;99.90
25092;DHT22;13082;52.374;4.946;2022-11-18T08:36:31;9.10;99.90
25092;DHT22;13082;52.374;4.946;2022-11-18T08:38:59;9.10;99.90
25092;DHT22;13082;52.374;4.946;2022-11-18T08:41:33;9.10;99.90
25092;DHT22;13082;52.374;4.946;2022-11-18T08:44:00;9.20;99.90
25092;DHT22;13082;52.374;4.946;2022-11-18T08:46:26;9.20;99.90
25092;DHT22;13082;52.374;4.946;2022-11-18T08:48:52;9.20;99.90
25092;DHT22;13082;52.374;4.946;2022-11-18T08:51:17;9.20;99.90
25092;DHT22;13082;52.374;4.946;2022-11-18T08:53:43;9.20;99.90
25092;DHT22;13082;52.374;4.946;2022-11-18T08:56:14;9.20;99.90
25092;DHT22;13082;52.374;4.946;2022-11-18T08:58:40;9.10;99.90
25092;DHT22;13082;52.374;4.946;2022-11-18T09:01:07;9.10;99.90
25092;DHT22;13082;52.374;4.946;2022-11-18T09:03:33;9.20;99.90
25092;DHT22;13082;52.374;4.946;2022-11-18T09:06:06;9.20;99.90
25092;DHT22;13082;52.374;4.946;2022-11-18T09:08:31;9.20;99.90
25092;DHT22;13082;52.374;4.946;2022-11-18T09:10:57;9.20;99.90
25092;DHT22;13082;52.374;4.946;2022-11-18T09:13:22;9.20;99.90
25092;DHT22;13082;52.374;4.946;2022-11-18T09:15:48;9.30;99.90
25092;DHT22;13082;52.374;4.946;2022-11-18T09:18:14;9.30;99.90
25092;DHT22;13082;52.374;4.946;2022-11-18T09:20:40;9.30;99.90
25092;DHT22;13082;52.374;4.946;2022-11-18T09:23:05;9.30;99.90
25092;DHT22;13082;52.374;4.946;2022-11-18T09:25:31;9.30;99.90
25092;DHT22;13082;52.374;4.946;2022-11-18T09:27:56;9.30;99.90
25092;DHT22;13082;52.374;4.946;2022-11-18T09:30:22;9.30;99.90
25092;DHT22;13082;52.374;4.946;2022-11-18T09:32:47;9.30;99.90
25092;DHT22;13082;52.374;4.946;2022-11-18T09:35:14;9.40;99.90
25092;DHT22;13082;52.374;4.946;2022-11-18T09:37:40;9.40;99.90
25092;DHT22;13082;52.374;4.946;2022-11-18T09:40:09;9.30;99.90
25092;DHT22;13082;52.374;4.946;2022-11-18T09:45:24;9.70;99.90
25092;DHT22;13082;52.374;4.946;2022-11-18T09:47:50;9.70;99.90
25092;DHT22;13082;52.374;4.946;2022-11-18T09:50:20;9.70;99.90
25092;DHT22;13082;52.374;4.946;2022-11-18T09:55:40;9.60;99.90
25092;DHT22;13082;52.374;4.946;2022-11-18T09:58:06;9.60;99.90
25092;DHT22;13082;52.374;4.946;2022-11-18T10:00:35;9.70;99.90
25092;DHT22;13082;52.374;4.946;2022-11-18T10:03:06;9.90;99.90
25092;DHT22;13082;52.374;4.946;2022-11-18T10:08:42;10.10;99.90
25092;DHT22;13082;52.374;4.946;2022-11-18T10:16:21;10.20;99.90
25092;DHT22;13082;52.374;4.946;2022-11-18T10:21:52;10.00;99.90
25092;DHT22;13082;52.374;4.946;2022-11-18T10:24:24;9.90;99.90
25092;DHT22;13082;52.374;4.946;2022-11-18T10:26:58;9.80;99.90
25092;DHT22;13082;52.374;4.946;2022-11-18T10:29:24;9.80;99.90
25092;DHT22;13082;52.374;4.946;2022-11-18T10:32:05;9.70;99.90
25092;DHT22;13082;52.374;4.946;2022-11-18T10:34:32;9.70;99.90
25092;DHT22;13082;52.374;4.946;2022-11-18T10:39:29;9.60;99.90
25092;DHT22;13082;52.374;4.946;2022-11-18T10:42:05;9.60;99.90
25092;DHT22;13082;52.374;4.946;2022-11-18T10:44:34;9.60;99.90
25092;DHT22;13082;52.374;4.946;2022-11-18T10:47:23;9.60;99.90
25092;DHT22;13082;52.374;4.946;2022-11-18T10:49:51;9.60;99.90
25092;DHT22;13082;52.374;4.946;2022-11-18T10:52:17;9.60;99.90
25092;DHT22;13082;52.374;4.946;2022-11-18T10:54:43;9.70;99.90
25092;DHT22;13082;52.374;4.946;2022-11-18T10:57:21;9.80;99.90
25092;DHT22;13082;52.374;4.946;2022-11-18T10:59:49;9.80;99.90
25092;DHT22;13082;52.374;4.946;2022-11-18T11:04:48;9.80;99.90
25092;DHT22;13082;52.374;4.946;2022-11-18T11:09:39;9.90;99.90
25092;DHT22;13082;52.374;4.946;2022-11-18T11:12:16;9.90;99.90
25092;DHT22;13082;52.374;4.946;2022-11-18T11:14:53;9.90;99.90
25092;DHT22;13082;52.374;4.946;2022-11-18T11:20:19;9.90;99.90
25092;DHT22;13082;52.374;4.946;2022-11-18T11:22:45;9.90;99.90
25092;DHT22;13082;52.374;4.946;2022-11-18T11:25:27;10.00;99.90
25092;DHT22;13082;52.374;4.946;2022-11-18T11:42:20;10.00;99.90
25092;DHT22;13082;52.374;4.946;2022-11-18T12:04:42;10.10;99.90
25092;DHT22;13082;52.374;4.946;2022-11-18T12:07:15;10.10;99.90
25092;DHT22;13082;52.374;4.946;2022-11-18T12:20:36;10.10;99.90
25092;DHT22;13082;52.374;4.946;2022-11-18T12:23:17;10.10;99.90
25092;DHT22;13082;52.374;4.946;2022-11-18T12:25:50;10.10;99.90
25092;DHT22;13082;52.374;4.946;2022-11-18T12:28:38;10.10;99.90
25092;DHT22;13082;52.374;4.946;2022-11-18T12:33:51;10.00;99.90
25092;DHT22;13082;52.374;4.946;2022-11-18T12:36:26;10.10;99.90
25092;DHT22;13082;52.374;4.946;2022-11-18T12:38:53;10.10;99.90
25092;DHT22;13082;52.374;4.946;2022-11-18T12:44:23;10.10;99.90
25092;DHT22;13082;52.374;4.946;2022-11-18T12:46:50;10.10;99.90
25092;DHT22;13082;52.374;4.946;2022-11-18T12:51:49;10.20;99.90
25092;DHT22;13082;52.374;4.946;2022-11-18T12:57:17;10.20;99.90
25092;DHT22;13082;52.374;4.946;2022-11-18T12:59:43;10.20;99.90
25092;DHT22;13082;52.374;4.946;2022-11-18T13:02:21;10.20;99.90
25092;DHT22;13082;52.374;4.946;2022-11-18T13:05:08;10.20;99.90
25092;DHT22;13082;52.374;4.946;2022-11-18T13:07:44;10.20;99.90
25092;DHT22;13082;52.374;4.946;2022-11-18T13:10:32;10.20;99.90
25092;DHT22;13082;52.374;4.946;2022-11-18T13:12:59;10.20;99.90
25092;DHT22;13082;52.374;4.946;2022-11-18T13:15:27;10.20;99.90
25092;DHT22;13082;52.374;4.946;2022-11-18T13:18:17;10.20;99.90
25092;DHT22;13082;52.374;4.946;2022-11-18T13:20:52;10.20;99.90
25092;DHT22;13082;52.374;4.946;2022-11-18T13:23:30;10.20;99.90
25092;DHT22;13082;52.374;4.946;2022-11-18T13:26:21;10.20;99.90
25092;DHT22;13082;52.374;4.946;2022-11-18T13:28:56;10.20;99.90
25092;DHT22;13082;52.374;4.946;2022-11-18T13:31:52;10.20;99.90
25092;DHT22;13082;52.374;4.946;2022-11-18T13:34:22;10.20;99.90
25092;DHT22;13082;52.374;4.946;2022-11-18T13:36:49;10.20;99.90
25092;DHT22;13082;52.374;4.946;2022-11-18T13:39:28;10.30;99.90
25092;DHT22;13082;52.374;4.946;2022-11-18T13:42:04;10.30;99.90
25092;DHT22;13082;52.374;4.946;2022-11-18T13:44:34;10.30;99.90
25092;DHT22;13082;52.374;4.946;2022-11-18T13:49:46;10.30;99.90
25092;DHT22;13082;52.374;4.946;2022-11-18T13:52:27;10.40;99.90
25092;DHT22;13082;52.374;4.946;2022-11-18T13:54:55;10.30;99.90
25092;DHT22;13082;52.374;4.946;2022-11-18T13:57:23;10.30;99.90
25092;DHT22;13082;52.374;4.946;2022-11-18T13:59:50;10.30;99.90
25092;DHT22;13082;52.374;4.946;2022-11-18T14:02:16;10.40;99.90
25092;DHT22;13082;52.374;4.946;2022-11-18T14:04:53;10.40;99.90
25092;DHT22;13082;52.374;4.946;2022-11-18T14:07:28;10.40;99.90
25092;DHT22;13082;52.374;4.946;2022-11-18T14:10:07;10.40;99.90
25092;DHT22;13082;52.374;4.946;2022-11-18T14:12:34;10.40;99.90
25092;DHT22;13082;52.374;4.946;2022-11-18T14:15:14;10.40;99.90
25092;DHT22;13082;52.374;4.946;2022-11-18T14:17:58;10.40;99.90
25092;DHT22;13082;52.374;4.946;2022-11-18T14:20:26;10.40;99.90
25092;DHT22;13082;52.374;4.946;2022-11-18T14:22:57;10.40;99.90
25092;DHT22;13082;52.374;4.946;2022-11-18T14:27:53;10.40;99.90
25092;DHT22;13082;52.374;4.946;2022-11-18T14:30:32;10.40;99.90
25092;DHT22;13082;52.374;4.946;2022-11-18T14:35:46;10.30;99.90
25092;DHT22;13082;52.374;4.946;2022-11-18T14:38:18;10.30;99.90
25092;DHT22;13082;52.374;4.946;2022-11-18T14:40:43;10.40;99.90
25092;DHT22;13082;52.374;4.946;2022-11-18T14:43:11;10.40;99.90
25092;DHT22;13082;52.374;4.946;2022-11-18T14:45:38;10.40;99.90
25092;DHT22;13082;52.374;4.946;2022-11-18T14:48:04;10.30;99.90
25092;DHT22;13082;52.374;4.946;2022-11-18T14:50:30;10.40;99.90
25092;DHT22;13082;52.374;4.946;2022-11-18T14:52:56;10.40;99.90
25092;DHT22;13082;52.374;4.946;2022-11-18T14:55:21;10.40;99.90
25092;DHT22;13082;52.374;4.946;2022-11-18T14:57:47;10.40;99.90
25092;DHT22;13082;52.374;4.946;2022-11-18T15:00:13;10.40;99.90
25092;DHT22;13082;52.374;4.946;2022-11-18T15:02:40;10.40;99.90
25092;DHT22;13082;52.374;4.946;2022-11-18T15:05:06;10.30;99.90
25092;DHT22;13082;52.374;4.946;2022-11-18T15:07:32;10.30;99.90
25092;DHT22;13082;52.374;4.946;2022-11-18T15:09:57;10.30;99.90
25092;DHT22;13082;52.374;4.946;2022-11-18T15:12:23;10.30;99.90
25092;DHT22;13082;52.374;4.946;2022-11-18T15:14:49;10.30;99.90
25092;DHT22;13082;52.374;4.946;2022-11-18T15:17:14;10.30;99.90
25092;DHT22;13082;52.374;4.946;2022-11-18T15:19:40;10.20;99.90
25092;DHT22;13082;52.374;4.946;2022-11-18T15:22:06;10.20;99.90
25092;DHT22;13082;52.374;4.946;2022-11-18T15:24:32;10.20;99.90
25092;DHT22;13082;52.374;4.946;2022-11-18T15:26:57;10.30;99.90
25092;DHT22;13082;52.374;4.946;2022-11-18T15:29:24;10.20;99.90
25092;DHT22;13082;52.374;4.946;2022-11-18T15:31:50;10.20;99.90
25092;DHT22;13082;52.374;4.946;2022-11-18T15:34:17;10.20;99.90
25092;DHT22;13082;52.374;4.946;2022-11-18T15:36:43;10.20;99.90
25092;DHT22;13082;52.374;4.946;2022-11-18T15:39:09;10.10;99.90
25092;DHT22;13082;52.374;4.946;2022-11-18T15:41:36;10.10;99.90
25092;DHT22;13082;52.374;4.946;2022-11-18T15:44:03;10.10;99.90
25092;DHT22;13082;52.374;4.946;2022-11-18T15:46:29;10.10;99.90
25092;DHT22;13082;52.374;4.946;2022-11-18T15:48:57;10.10;99.90
25092;DHT22;13082;52.374;4.946;2022-11-18T15:51:24;10.00;99.90
25092;DHT22;13082;52.374;4.946;2022-11-18T15:53:50;10.00;99.90
25092;DHT22;13082;52.374;4.946;2022-11-18T16:01:22;10.00;99.90
25092;DHT22;13082;52.374;4.946;2022-11-18T16:03:48;9.90;99.90
25092;DHT22;13082;52.374;4.946;2022-11-18T16:06:14;9.90;99.90
25092;DHT22;13082;52.374;4.946;2022-11-18T16:08:39;9.90;99.90
25092;DHT22;13082;52.374;4.946;2022-11-18T16:11:05;9.90;99.90
25092;DHT22;13082;52.374;4.946;2022-11-18T16:13:49;9.90;99.90
25092;DHT22;13082;52.374;4.946;2022-11-18T16:16:22;9.90;99.90
25092;DHT22;13082;52.374;4.946;2022-11-18T16:18:53;9.90;99.90
25092;DHT22;13082;52.374;4.946;2022-11-18T16:21:20;9.90;99.90
25092;DHT22;13082;52.374;4.946;2022-11-18T16:23:45;9.80;99.90
25092;DHT22;13082;52.374;4.946;2022-11-18T16:26:11;9.80;99.90
25092;DHT22;13082;52.374;4.946;2022-11-18T16:28:36;9.80;99.90
25092;DHT22;13082;52.374;4.946;2022-11-18T16:31:04;9.80;99.90
25092;DHT22;13082;52.374;4.946;2022-11-18T16:33:49;9.80;99.90
25092;DHT22;13082;52.374;4.946;2022-11-18T16:36:14;9.80;99.90
25092;DHT22;13082;52.374;4.946;2022-11-18T16:38:40;9.80;99.90
25092;DHT22;13082;52.374;4.946;2022-11-18T16:41:06;9.70;99.90
25092;DHT22;13082;52.374;4.946;2022-11-18T16:43:51;9.80;99.90
25092;DHT22;13082;52.374;4.946;2022-11-18T16:46:17;9.80;99.90
25092;DHT22;13082;52.374;4.946;2022-11-18T16:48:42;9.70;99.90
25092;DHT22;13082;52.374;4.946;2022-11-18T16:51:22;9.80;99.90
25092;DHT22;13082;52.374;4.946;2022-11-18T16:53:49;9.70;99.90
25092;DHT22;13082;52.374;4.946;2022-11-18T16:56:16;9.70;99.90
25092;DHT22;13082;52.374;4.946;2022-11-18T16:58:41;9.70;99.90
25092;DHT22;13082;52.374;4.946;2022-11-18T17:01:11;9.70;99.90
25092;DHT22;13082;52.374;4.946;2022-11-18T17:03:37;9.70;99.90
25092;DHT22;13082;52.374;4.946;2022-11-18T17:06:02;9.80;99.90
25092;DHT22;13082;52.374;4.946;2022-11-18T17:08:31;9.70;99.90
25092;DHT22;13082;52.374;4.946;2022-11-18T17:11:03;9.70;99.90
25092;DHT22;13082;52.374;4.946;2022-11-18T17:13:29;9.70;99.90
25092;DHT22;13082;52.374;4.946;2022-11-18T17:15:54;9.70;99.90
25092;DHT22;13082;52.374;4.946;2022-11-18T17:18:20;9.70;99.90
25092;DHT22;13082;52.374;4.946;2022-11-18T17:20:45;9.70;99.90
25092;DHT22;13082;52.374;4.946;2022-11-18T17:23:11;9.70;99.90
25092;DHT22;13082;52.374;4.946;2022-11-18T17:25:36;9.70;99.90
25092;DHT22;13082;52.374;4.946;2022-11-18T17:28:04;9.60;99.90
25092;DHT22;13082;52.374;4.946;2022-11-18T17:30:29;9.60;99.90
25092;DHT22;13082;52.374;4.946;2022-11-18T17:32:55;9.60;99.90
25092;DHT22;13082;52.374;4.946;2022-11-18T17:35:21;9.60;99.90
25092;DHT22;13082;52.374;4.946;2022-11-18T17:37:46;9.60;99.90
25092;DHT22;13082;52.374;4.946;2022-11-18T17:40:12;9.60;99.90
25092;DHT22;13082;52.374;4.946;2022-11-18T17:42:38;9.60;99.90
25092;DHT22;13082;52.374;4.946;2022-11-18T17:45:04;9.60;99.90
25092;DHT22;13082;52.374;4.946;2022-11-18T17:47:30;9.60;99.90
25092;DHT22;13082;52.374;4.946;2022-11-18T17:49:56;9.60;99.90
25092;DHT22;13082;52.374;4.946;2022-11-18T17:52:21;9.50;99.90
25092;DHT22;13082;52.374;4.946;2022-11-18T17:54:47;9.50;99.90
25092;DHT22;13082;52.374;4.946;2022-11-18T17:57:12;9.60;99.90